Time;durP1;ratioP1;P1;durP2;ratioP2;P2;SDS_P1;SDS_P2;PMS_P1;PMS_P2;Temp;Humidity;BMP_temperature;BMP_pressure;BME280_temperature;BME280_humidity;BME280_pressure;Samples;Min_cycle;Max_cycle;Signal;HPM_P1;HPM_P2
2019/12/14 00:00:11;;;;;;;8.7;2.4;;;;;;;5.74;64.31152;938.7964;;;;
2019/12/14 00:02:37;;;;;;;7.5;2.1;;;;;;;5.8;63.84375;938.7594;;;;
2019/12/14 00:04:57;;;;;;;10.3;2.6;;;;;;;5.83;63.31543;938.7222;;;;
2019/12/14 00:07:22;;;;;;;10.6;2.5;;;;;;;5.84;63.77051;938.7597;;;;
2019/12/14 00:09:47;;;;;;;8.5;2.3;;;;;;;5.77;62.84473;938.7261;;;;
2019/12/14 00:12:12;;;;;;;6.9;2.3;;;;;;;5.77;63.62109;938.7164;;;;
2019/12/14 00:14:38;;;;;;;7.6;2;;;;;;;5.65;63.45215;938.5853;;;;
2019/12/14 00:17:03;;;;;;;6.3;2.2;;;;;;;5.69;63.20215;938.5657;;;;
2019/12/14 00:19:28;;;;;;;8.4;2.2;;;;;;;5.6;63.1543;938.5666;;;;
2019/12/14 00:21:53;;;;;;;8.1;2.1;;;;;;;5.58;63.65039;938.6078;;;;
2019/12/14 00:24:18;;;;;;;8;2.1;;;;;;;5.55;63.10156;938.6617;;;;
2019/12/14 00:26:43;;;;;;;8.7;2.5;;;;;;;5.52;63.20117;938.5906;;;;
2019/12/14 00:29:09;;;;;;;8.6;2.1;;;;;;;5.45;62.98145;938.6119;;;;
2019/12/14 00:31:34;;;;;;;10.2;2.5;;;;;;;5.47;63.00781;938.4962;;;;
2019/12/14 00:33:59;;;;;;;8.2;2.3;;;;;;;5.46;63.01758;938.5792;;;;
2019/12/14 00:36:24;;;;;;;8.1;2;;;;;;;5.43;63.04785;938.6012;;;;
2019/12/14 00:38:49;;;;;;;7.5;2;;;;;;;5.38;63.01758;938.6108;;;;
2019/12/14 00:41:14;;;;;;;9.4;2.4;;;;;;;5.39;63.27344;938.5214;;;;
2019/12/14 00:43:40;;;;;;;6;2.1;;;;;;;5.38;63.00586;938.4089;;;;
2019/12/14 00:46:05;;;;;;;8.1;2.1;;;;;;;5.34;63.13867;938.2667;;;;
2019/12/14 00:48:30;;;;;;;8.5;2.4;;;;;;;5.37;62.66895;938.1602;;;;
2019/12/14 00:50:55;;;;;;;9.3;2.3;;;;;;;5.19;63.19727;937.8116;;;;
2019/12/14 00:53:20;;;;;;;8.4;2.2;;;;;;;5.27;62.86328;937.5426;;;;
2019/12/14 00:55:45;;;;;;;7;2.1;;;;;;;5.2;63.21191;937.3566;;;;
2019/12/14 00:58:11;;;;;;;9.2;2.4;;;;;;;5.15;62.96094;937.5251;;;;
2019/12/14 01:00:36;;;;;;;9.7;2.1;;;;;;;5.17;63.24121;937.8367;;;;
2019/12/14 01:03:01;;;;;;;8.1;2.1;;;;;;;5.09;63.10352;938.0467;;;;
2019/12/14 01:05:26;;;;;;;8.9;2.2;;;;;;;5.17;62.99707;938.1937;;;;
2019/12/14 01:08:05;;;;;;;7.8;2.2;;;;;;;5.08;62.9502;938.3057;;;;
2019/12/14 01:10:30;;;;;;;8.4;2.1;;;;;;;5.16;62.5918;938.3849;;;;
2019/12/14 01:12:41;;;;;;;9.1;2.1;;;;;;;5.15;62.51953;938.4854;;;;
2019/12/14 01:15:06;;;;;;;7.5;1.9;;;;;;;5.14;62.68164;938.5283;;;;
2019/12/14 01:17:31;;;;;;;7.5;1.8;;;;;;;5.1;62.37598;938.5575;;;;
2019/12/14 01:19:57;;;;;;;7.7;2.1;;;;;;;5.08;62.3252;938.5458;;;;
2019/12/14 01:22:22;;;;;;;7;1.9;;;;;;;5.14;62.1709;938.517;;;;
2019/12/14 01:24:48;;;;;;;6.5;1.8;;;;;;;5.15;61.45605;938.5795;;;;
2019/12/14 01:27:12;;;;;;;7.8;2;;;;;;;5.14;61.38574;938.6331;;;;
2019/12/14 01:29:37;;;;;;;8.4;1.9;;;;;;;5.09;61.23926;938.71;;;;
2019/12/14 01:32:02;;;;;;;8.8;2.1;;;;;;;5.18;61.08984;938.7316;;;;
2019/12/14 01:34:28;;;;;;;5.7;2;;;;;;;5.18;61.27637;938.816;;;;
2019/12/14 01:36:53;;;;;;;9.8;2.4;;;;;;;5.21;60.64355;938.7809;;;;
2019/12/14 01:39:18;;;;;;;6.3;1.8;;;;;;;5.13;60.41211;938.7989;;;;
2019/12/14 01:41:43;;;;;;;7.3;1.9;;;;;;;5.23;60.05566;938.808;;;;
2019/12/14 01:44:08;;;;;;;6.9;2.1;;;;;;;5.13;59.70605;938.7905;;;;
2019/12/14 01:46:33;;;;;;;7.6;1.9;;;;;;;5.22;59.86914;938.8567;;;;
2019/12/14 01:48:58;;;;;;;7.8;1.8;;;;;;;5.19;59.99219;938.8206;;;;
2019/12/14 01:51:24;;;;;;;7;1.8;;;;;;;5.25;59.7334;938.9207;;;;
2019/12/14 01:53:49;;;;;;;8.5;2;;;;;;;5.14;59.7998;938.8731;;;;
2019/12/14 01:56:14;;;;;;;8;2;;;;;;;5.19;59.64551;938.7942;;;;
2019/12/14 01:58:39;;;;;;;6.2;2;;;;;;;5.22;59.67188;938.7208;;;;
2019/12/14 02:01:14;;;;;;;8.5;2;;;;;;;5.15;59.14063;938.5547;;;;
2019/12/14 02:03:36;;;;;;;7.5;2.1;;;;;;;5.23;59.67383;938.5227;;;;
2019/12/14 02:06:00;;;;;;;8.6;2.1;;;;;;;5.22;59.67188;938.597;;;;
2019/12/14 02:08:19;;;;;;;6.4;1.8;;;;;;;5.18;59.71191;938.5747;;;;
2019/12/14 02:10:45;;;;;;;7.8;2.3;;;;;;;5.15;60.36719;938.6014;;;;
2019/12/14 02:13:10;;;;;;;7.3;2.1;;;;;;;5.23;60.02051;938.5179;;;;
2019/12/14 02:15:35;;;;;;;7.5;2.1;;;;;;;5.16;59.89551;938.5304;;;;
2019/12/14 02:18:00;;;;;;;7.2;1.9;;;;;;;5.2;59.77441;938.5308;;;;
2019/12/14 02:20:27;;;;;;;8.7;2;;;;;;;5.22;59.73047;938.5245;;;;
2019/12/14 02:22:51;;;;;;;8.3;2;;;;;;;5.21;60.17871;938.4886;;;;
2019/12/14 02:25:16;;;;;;;8;1.8;;;;;;;5.24;59.80176;938.2592;;;;
2019/12/14 02:27:41;;;;;;;8.1;1.8;;;;;;;5.26;59.34277;938.2103;;;;
2019/12/14 02:30:06;;;;;;;5.9;1.7;;;;;;;5.24;59.50195;938.312;;;;
2019/12/14 02:32:31;;;;;;;6.7;1.8;;;;;;;5.22;59.38281;938.2377;;;;
2019/12/14 02:34:57;;;;;;;7.1;1.9;;;;;;;5.32;59.4082;938.2421;;;;
2019/12/14 02:37:22;;;;;;;6.9;1.8;;;;;;;5.36;58.93945;938.17;;;;
2019/12/14 02:39:50;;;;;;;5.2;1.9;;;;;;;5.34;58.94824;938.2576;;;;
2019/12/14 02:42:12;;;;;;;7.1;1.8;;;;;;;5.33;58.76074;938.2051;;;;
2019/12/14 02:44:37;;;;;;;7.4;1.8;;;;;;;5.21;59.16211;938.2139;;;;
2019/12/14 02:47:02;;;;;;;9.1;2.2;;;;;;;5.27;59.13379;938.1222;;;;
2019/12/14 02:49:27;;;;;;;5.8;1.7;;;;;;;5.36;58.56836;938.1152;;;;
2019/12/14 02:51:53;;;;;;;6.3;1.7;;;;;;;5.37;58.33789;938.0906;;;;
2019/12/14 02:54:18;;;;;;;5.7;1.9;;;;;;;5.35;58.93848;938.0853;;;;
2019/12/14 02:56:43;;;;;;;9.7;1.9;;;;;;;5.24;58.19434;938.0203;;;;
2019/12/14 02:59:08;;;;;;;5.8;2;;;;;;;5.33;58.32031;937.9451;;;;
2019/12/14 03:01:33;;;;;;;6.5;1.9;;;;;;;5.31;58.26074;937.8786;;;;
2019/12/14 03:03:59;;;;;;;8.8;2.5;;;;;;;5.34;58.02246;937.8616;;;;
2019/12/14 03:06:24;;;;;;;7.2;1.8;;;;;;;5.32;58.33203;937.8533;;;;
2019/12/14 03:08:49;;;;;;;6.7;1.9;;;;;;;5.25;58.00879;937.705;;;;
2019/12/14 03:11:14;;;;;;;9;2.1;;;;;;;5.25;58.10156;937.6035;;;;
2019/12/14 03:13:39;;;;;;;6.6;1.6;;;;;;;5.25;58.42578;937.5635;;;;
2019/12/14 03:16:05;;;;;;;6.6;1.8;;;;;;;5.27;58.18652;937.5571;;;;
2019/12/14 03:18:29;;;;;;;5.9;2;;;;;;;5.19;57.99023;937.476;;;;
2019/12/14 03:20:54;;;;;;;8.1;1.8;;;;;;;5.12;58.03809;937.5439;;;;
2019/12/14 03:23:20;;;;;;;4.9;1.8;;;;;;;5.16;58.51758;937.7224;;;;
2019/12/14 03:25:48;;;;;;;7.5;2;;;;;;;5.05;58.50293;937.6194;;;;
2019/12/14 03:28:14;;;;;;;7.4;1.8;;;;;;;5.07;58.45898;937.7512;;;;
2019/12/14 03:30:35;;;;;;;5.9;1.7;;;;;;;5.06;58.31934;937.9589;;;;
2019/12/14 03:33:00;;;;;;;6;1.9;;;;;;;5.08;58.16016;937.8884;;;;
2019/12/14 03:35:25;;;;;;;7.3;2;;;;;;;4.98;58.56348;937.7092;;;;
2019/12/14 03:37:50;;;;;;;6.4;1.8;;;;;;;4.91;58.71582;937.5391;;;;
2019/12/14 03:40:16;;;;;;;5.3;1.8;;;;;;;5.04;58.68652;937.5449;;;;
2019/12/14 03:42:41;;;;;;;6.9;1.9;;;;;;;4.97;58.38672;937.4451;;;;
2019/12/14 03:45:06;;;;;;;5.5;1.8;;;;;;;5;58.47266;937.4631;;;;
2019/12/14 03:47:31;;;;;;;6.2;1.8;;;;;;;5.06;58.25;937.441;;;;
2019/12/14 03:49:56;;;;;;;5.6;1.6;;;;;;;4.99;57.30371;937.4358;;;;
2019/12/14 03:52:21;;;;;;;3.7;1.6;;;;;;;4.98;57.59082;937.4626;;;;
2019/12/14 03:54:46;;;;;;;3.3;1.3;;;;;;;4.96;57.50781;937.4375;;;;
2019/12/14 03:57:11;;;;;;;5.4;1.4;;;;;;;5.06;57.60059;937.5148;;;;
2019/12/14 03:59:37;;;;;;;4.5;1.5;;;;;;;5.08;57.62793;937.5673;;;;
2019/12/14 04:02:27;;;;;;;5.5;1.5;;;;;;;5.09;57.61719;937.5338;;;;
2019/12/14 04:04:52;;;;;;;6.1;1.5;;;;;;;5.2;57.52734;937.452;;;;
2019/12/14 04:07:17;;;;;;;5.9;1.5;;;;;;;5.19;58.02539;937.4383;;;;
2019/12/14 04:09:42;;;;;;;4.7;1.6;;;;;;;5.2;58.21094;937.6128;;;;
2019/12/14 04:12:07;;;;;;;6.1;1.7;;;;;;;5.3;58.75684;937.5292;;;;
2019/12/14 04:14:32;;;;;;;4.6;1.6;;;;;;;5.33;58.81934;937.5369;;;;
2019/12/14 04:16:57;;;;;;;4.2;1.5;;;;;;;5.34;59.67773;937.4694;;;;
2019/12/14 04:19:22;;;;;;;4.7;1.4;;;;;;;5.4;60.08008;937.4769;;;;
2019/12/14 04:21:47;;;;;;;4.8;1.6;;;;;;;5.4;61.5498;937.5898;;;;
2019/12/14 04:24:12;;;;;;;4.4;1.6;;;;;;;5.2;64.91309;937.4978;;;;
2019/12/14 04:26:37;;;;;;;6.2;1.6;;;;;;;5.05;68.53516;937.486;;;;
2019/12/14 04:29:11;;;;;;;5.5;1.5;;;;;;;4.89;70.84473;937.4504;;;;
2019/12/14 04:32:17;;;;;;;5.9;1.4;;;;;;;4.81;72.16309;937.4285;;;;
2019/12/14 04:33:53;;;;;;;5.3;1.5;;;;;;;4.79;73.24609;937.3234;;;;
2019/12/14 04:36:18;;;;;;;5.1;1.5;;;;;;;4.72;73.65039;937.3047;;;;
2019/12/14 04:38:43;;;;;;;5.9;1.6;;;;;;;4.71;74.24023;937.3308;;;;
2019/12/14 04:41:08;;;;;;;5.5;1.5;;;;;;;4.59;74.81836;937.2299;;;;
2019/12/14 04:43:33;;;;;;;4.9;1.6;;;;;;;4.49;75.6084;937.0891;;;;
2019/12/14 04:45:58;;;;;;;5.6;1.7;;;;;;;4.4;76.50586;937.0661;;;;
2019/12/14 04:48:23;;;;;;;6.4;1.6;;;;;;;4.47;76.57715;937.0056;;;;
2019/12/14 04:50:48;;;;;;;4.8;1.6;;;;;;;4.45;76.94238;936.9355;;;;
2019/12/14 04:53:14;;;;;;;4.7;1.4;;;;;;;4.36;77.44824;936.927;;;;
2019/12/14 04:55:39;;;;;;;5.1;1.6;;;;;;;4.32;78.17969;936.9089;;;;
2019/12/14 04:58:04;;;;;;;6.4;1.6;;;;;;;4.2;78.44531;936.9431;;;;
2019/12/14 05:00:29;;;;;;;5.1;1.5;;;;;;;4.3;78.49805;936.8763;;;;
2019/12/14 05:02:54;;;;;;;5.9;1.4;;;;;;;4.17;79.1084;936.6919;;;;
2019/12/14 05:05:19;;;;;;;6.6;1.7;;;;;;;4.07;79.39063;936.7483;;;;
2019/12/14 05:07:44;;;;;;;6.6;1.7;;;;;;;4.05;79.64355;936.7252;;;;
2019/12/14 05:10:09;;;;;;;6;1.5;;;;;;;3.93;80.31055;936.6375;;;;
2019/12/14 05:12:34;;;;;;;5.9;1.5;;;;;;;4.08;80.01563;936.6085;;;;
2019/12/14 05:14:59;;;;;;;7;1.7;;;;;;;4.15;79.56738;936.6027;;;;
2019/12/14 05:17:25;;;;;;;4.7;1.5;;;;;;;4.11;79.49121;936.3792;;;;
2019/12/14 05:19:50;;;;;;;4.1;1.5;;;;;;;3.98;80.14746;936.321;;;;
2019/12/14 05:22:15;;;;;;;5;1.5;;;;;;;4.15;79.56738;936.4314;;;;
2019/12/14 05:24:40;;;;;;;5.1;1.2;;;;;;;4.19;79.64453;936.4344;;;;
2019/12/14 05:27:05;;;;;;;3.3;1.2;;;;;;;4.3;79.30664;936.4724;;;;
2019/12/14 05:29:30;;;;;;;4.3;1.2;;;;;;;4.22;79.19922;936.3692;;;;
2019/12/14 05:31:55;;;;;;;5.7;1.5;;;;;;;4.19;79.29785;936.4094;;;;
2019/12/14 05:34:20;;;;;;;3.4;1.3;;;;;;;4.27;79.12793;936.3837;;;;
2019/12/14 05:36:45;;;;;;;4.9;1.3;;;;;;;4.23;78.99512;936.304;;;;
2019/12/14 05:39:10;;;;;;;2.8;1.1;;;;;;;4.22;78.97949;936.1848;;;;
2019/12/14 05:41:35;;;;;;;5.1;1.6;;;;;;;4.33;78.26367;936.0977;;;;
2019/12/14 05:44:00;;;;;;;2.5;1.1;;;;;;;4.37;78.31445;935.9529;;;;
2019/12/14 05:46:26;;;;;;;3.7;1.4;;;;;;;4.29;78.60059;935.9878;;;;
2019/12/14 05:48:51;;;;;;;2.9;1.1;;;;;;;4.48;77.86133;935.9886;;;;
2019/12/14 05:51:16;;;;;;;3.5;1.1;;;;;;;4.53;77.38379;935.9128;;;;
2019/12/14 05:53:41;;;;;;;3.4;1.3;;;;;;;4.54;77.44336;935.9611;;;;
2019/12/14 05:56:06;;;;;;;2.7;1.3;;;;;;;4.58;77.03711;935.933;;;;
2019/12/14 05:58:31;;;;;;;3;1.3;;;;;;;4.61;77.09961;935.9551;;;;
2019/12/14 06:00:56;;;;;;;3.2;1.3;;;;;;;4.62;77.38867;935.9751;;;;
2019/12/14 06:03:21;;;;;;;4.4;1.5;;;;;;;4.76;77.25195;935.945;;;;
2019/12/14 06:05:46;;;;;;;3.8;1.3;;;;;;;4.77;77.80078;935.8939;;;;
2019/12/14 06:08:11;;;;;;;5.1;1.8;;;;;;;4.79;78.12598;935.8563;;;;
2019/12/14 06:10:36;;;;;;;4.7;1.4;;;;;;;4.78;78.76074;935.9316;;;;
2019/12/14 06:13:01;;;;;;;5.4;1.2;;;;;;;4.87;78.86914;935.9565;;;;
2019/12/14 06:15:26;;;;;;;3.2;1.2;;;;;;;4.78;79.4541;935.9122;;;;
2019/12/14 06:17:52;;;;;;;5.3;1.5;;;;;;;4.82;79.94629;935.8926;;;;
2019/12/14 06:20:17;;;;;;;3.2;1.4;;;;;;;4.89;79.75195;935.9649;;;;
2019/12/14 06:22:42;;;;;;;4.2;1.4;;;;;;;4.9;80.2041;935.9783;;;;
2019/12/14 06:25:07;;;;;;;4.5;1.3;;;;;;;4.83;80.28516;935.9997;;;;
2019/12/14 06:27:32;;;;;;;5.1;1.4;;;;;;;4.91;80.70313;935.968;;;;
2019/12/14 06:29:57;;;;;;;4.1;1.4;;;;;;;4.94;81.0918;936.0637;;;;
2019/12/14 06:32:22;;;;;;;4.6;1.4;;;;;;;5.06;80.7793;936.1135;;;;
2019/12/14 06:34:47;;;;;;;4.8;1.4;;;;;;;5.08;81.16504;936.2268;;;;
2019/12/14 06:37:12;;;;;;;3.5;1.3;;;;;;;5.15;81.36133;936.3132;;;;
2019/12/14 06:39:37;;;;;;;3.4;1.3;;;;;;;5.26;81.57031;936.3697;;;;
2019/12/14 06:42:02;;;;;;;3.3;1.3;;;;;;;5.42;81.5293;936.3069;;;;
2019/12/14 06:44:27;;;;;;;3.1;1.2;;;;;;;5.63;81.24707;936.2733;;;;
2019/12/14 06:46:53;;;;;;;2.3;1.2;;;;;;;5.71;81.36621;936.259;;;;
2019/12/14 06:49:19;;;;;;;2.6;1.2;;;;;;;5.75;81.18945;936.4017;;;;
2019/12/14 06:51:43;;;;;;;3.2;1.1;;;;;;;5.88;80.74902;936.381;;;;
2019/12/14 06:54:08;;;;;;;1.6;1.1;;;;;;;5.93;81.12988;936.6096;;;;
2019/12/14 06:56:33;;;;;;;3.5;1.1;;;;;;;6.02;81.30762;936.6298;;;;
2019/12/14 06:58:58;;;;;;;4.9;1.3;;;;;;;6.08;81.64551;936.7078;;;;
2019/12/14 07:01:24;;;;;;;3;1.2;;;;;;;6.1;82.00781;936.8066;;;;
2019/12/14 07:03:49;;;;;;;3.1;1.4;;;;;;;6.07;82.69922;936.7406;;;;
2019/12/14 07:06:14;;;;;;;3;1.3;;;;;;;6.04;83.17969;936.9139;;;;
2019/12/14 07:08:39;;;;;;;3.8;1.6;;;;;;;6.07;83.74316;936.8836;;;;
2019/12/14 07:11:04;;;;;;;3.7;1.7;;;;;;;6.11;83.92188;937.0714;;;;
2019/12/14 07:13:29;;;;;;;3.7;1.7;;;;;;;6.09;83.95508;937.0608;;;;
2019/12/14 07:15:55;;;;;;;3.1;1.6;;;;;;;6.12;83.83496;937.1141;;;;
2019/12/14 07:18:20;;;;;;;2.7;1.6;;;;;;;6.19;83.78711;937.2482;;;;
2019/12/14 07:20:45;;;;;;;2;1.3;;;;;;;6.24;83.40234;937.2822;;;;
2019/12/14 07:23:10;;;;;;;2.9;1.4;;;;;;;6.27;83.375;937.2813;;;;
2019/12/14 07:25:35;;;;;;;5.2;1.3;;;;;;;6.32;82.5957;937.4476;;;;
2019/12/14 07:28:01;;;;;;;3.3;1.2;;;;;;;6.34;82.34375;937.6364;;;;
2019/12/14 07:30:26;;;;;;;3;1.2;;;;;;;6.35;82.69336;937.504;;;;
2019/12/14 07:32:51;;;;;;;4.1;1.2;;;;;;;6.43;81.97754;937.5156;;;;
2019/12/14 07:35:16;;;;;;;2.8;1.1;;;;;;;6.5;81.78223;937.5613;;;;
2019/12/14 07:37:41;;;;;;;3.7;1.2;;;;;;;6.51;81.66992;937.54;;;;
2019/12/14 07:40:06;;;;;;;3.4;1.1;;;;;;;6.51;81.64648;937.646;;;;
2019/12/14 07:42:31;;;;;;;1.8;1;;;;;;;6.53;82.0332;937.7202;;;;
2019/12/14 07:44:56;;;;;;;2.6;1;;;;;;;6.59;81.6377;937.8234;;;;
2019/12/14 07:47:21;;;;;;;2.2;1.1;;;;;;;6.72;81.24316;937.9402;;;;
2019/12/14 07:49:46;;;;;;;3;1.1;;;;;;;6.82;80.82227;937.8516;;;;
2019/12/14 07:52:11;;;;;;;2.9;1.1;;;;;;;6.88;80.81055;937.8007;;;;
2019/12/14 07:54:37;;;;;;;1.6;0.9;;;;;;;6.96;80.54492;937.9155;;;;
2019/12/14 07:57:02;;;;;;;1.8;1;;;;;;;7.01;80.3457;937.7122;;;;
2019/12/14 07:59:27;;;;;;;2;0.8;;;;;;;7.2;79.6377;937.9966;;;;
2019/12/14 08:01:52;;;;;;;3;1;;;;;;;7.75;77.93555;938.0368;;;;
2019/12/14 08:04:17;;;;;;;1.3;0.9;;;;;;;8.42;74.80273;938.3376;;;;
2019/12/14 08:06:42;;;;;;;2.2;0.9;;;;;;;8.14;75.99902;938.1641;;;;
2019/12/14 08:09:08;;;;;;;1.5;0.9;;;;;;;8.37;74.875;938.0895;;;;
2019/12/14 08:11:33;;;;;;;2.3;1;;;;;;;8.44;74.3623;938.2261;;;;
2019/12/14 08:13:58;;;;;;;1.9;0.9;;;;;;;8.84;71.95801;938.122;;;;
2019/12/14 08:16:23;;;;;;;2.2;0.9;;;;;;;9.25;69.96875;938.3323;;;;
2019/12/14 08:18:48;;;;;;;1.7;0.8;;;;;;;9.75;68.07324;938.3405;;;;
2019/12/14 08:21:13;;;;;;;2.6;0.8;;;;;;;10.02;66.76953;938.4397;;;;
2019/12/14 08:23:38;;;;;;;3.8;1.1;;;;;;;10.54;64.91602;938.4158;;;;
2019/12/14 08:26:03;;;;;;;4.2;1;;;;;;;10.94;62.71191;938.5655;;;;
2019/12/14 08:28:28;;;;;;;3.4;1.1;;;;;;;12.16;58.83008;938.8017;;;;
2019/12/14 08:30:54;;;;;;;3.5;1;;;;;;;10.96;62.7373;938.5962;;;;
2019/12/14 08:33:19;;;;;;;2.7;1.3;;;;;;;11.95;58.90918;938.5848;;;;
2019/12/14 08:35:44;;;;;;;2.7;1;;;;;;;10.67;63.27051;938.7224;;;;
2019/12/14 08:38:09;;;;;;;4.5;1;;;;;;;10.04;65.62402;938.5438;;;;
2019/12/14 08:40:34;;;;;;;3.4;1.2;;;;;;;9.96;65.45996;938.8088;;;;
2019/12/14 08:42:59;;;;;;;2.6;1;;;;;;;9.87;65.02539;938.7433;;;;
2019/12/14 08:45:24;;;;;;;10.1;1.4;;;;;;;9.71;64.50977;938.8804;;;;
2019/12/14 08:47:49;;;;;;;9.5;1.5;;;;;;;9.53;64.82422;939.0045;;;;
2019/12/14 08:50:14;;;;;;;6.4;1.4;;;;;;;9.38;64.82227;939.1473;;;;
2019/12/14 08:52:43;;;;;;;4.5;1.4;;;;;;;9.39;64.56836;939.3265;;;;
2019/12/14 08:56:10;;;;;;;5.4;1.6;;;;;;;9.47;63.72656;939.2233;;;;
2019/12/14 08:57:30;;;;;;;5.5;1.5;;;;;;;9.51;64.11914;939.3577;;;;
2019/12/14 08:59:55;;;;;;;5.6;1.5;;;;;;;9.73;63.77734;939.3456;;;;
2019/12/14 09:02:20;;;;;;;5.9;1.5;;;;;;;9.79;62.58008;939.4811;;;;
2019/12/14 09:04:45;;;;;;;5.3;1.4;;;;;;;9.72;62.41797;939.6599;;;;
2019/12/14 09:07:10;;;;;;;5.7;1.4;;;;;;;9.68;62.49414;939.6011;;;;
2019/12/14 09:09:35;;;;;;;4.8;1.6;;;;;;;9.82;62.03418;939.8661;;;;
2019/12/14 09:12:00;;;;;;;4.5;1.6;;;;;;;9.87;61.14063;939.7712;;;;
2019/12/14 09:14:25;;;;;;;9.1;1.6;;;;;;;9.88;61.04785;940.1233;;;;
2019/12/14 09:16:50;;;;;;;5.5;1.5;;;;;;;9.98;61.57813;940.152;;;;
2019/12/14 09:19:16;;;;;;;5.4;1.8;;;;;;;9.8;60.96777;940.113;;;;
2019/12/14 09:21:41;;;;;;;6.4;1.9;;;;;;;9.8;60.57031;940.1958;;;;
2019/12/14 09:24:06;;;;;;;11.5;2;;;;;;;9.82;60.39648;940.1233;;;;
2019/12/14 09:26:31;;;;;;;6.3;1.6;;;;;;;9.79;60.47363;940.3732;;;;
2019/12/14 09:28:56;;;;;;;6.5;2;;;;;;;9.85;60.45898;940.5314;;;;
2019/12/14 09:31:21;;;;;;;5.7;1.8;;;;;;;9.9;59.71777;940.6825;;;;
2019/12/14 09:33:46;;;;;;;6.1;1.7;;;;;;;9.93;59.65137;940.7163;;;;
2019/12/14 09:36:11;;;;;;;5.9;1.6;;;;;;;9.88;59.5498;940.695;;;;
2019/12/14 09:38:36;;;;;;;7.4;1.8;;;;;;;10.03;59.34863;940.885;;;;
2019/12/14 09:41:01;;;;;;;5.9;1.7;;;;;;;10.25;58.39551;940.8501;;;;
2019/12/14 09:43:26;;;;;;;5.7;1.7;;;;;;;10.45;57.8125;940.995;;;;
2019/12/14 09:45:52;;;;;;;6.8;1.5;;;;;;;10.67;56.98633;941.2184;;;;
2019/12/14 09:48:17;;;;;;;6;1.3;;;;;;;10.71;55.77246;940.8756;;;;
2019/12/14 09:50:42;;;;;;;5;1.3;;;;;;;10.6;55.65332;940.6995;;;;
2019/12/14 09:53:07;;;;;;;4.6;1.5;;;;;;;10.45;56.21875;941.0204;;;;
2019/12/14 09:55:32;;;;;;;6;1.7;;;;;;;10.42;56.42676;941.2186;;;;
2019/12/14 09:57:57;;;;;;;5.5;1.3;;;;;;;10.32;55.65234;941.0505;;;;
2019/12/14 10:00:22;;;;;;;5.3;1.3;;;;;;;10.34;55.69043;941.3719;;;;
2019/12/14 10:02:47;;;;;;;6.5;1.3;;;;;;;10.35;55.83203;941.2182;;;;
2019/12/14 10:05:12;;;;;;;4.6;1.5;;;;;;;10.13;56.75293;941.4631;;;;
2019/12/14 10:07:37;;;;;;;5.7;1.4;;;;;;;10.02;56.62109;941.7432;;;;
2019/12/14 10:10:03;;;;;;;4.7;1.5;;;;;;;9.99;57.24805;941.7365;;;;
2019/12/14 10:12:28;;;;;;;5.3;1.4;;;;;;;9.95;57.25488;941.7134;;;;
2019/12/14 10:14:53;;;;;;;4.2;1.4;;;;;;;10.06;57.51563;941.9196;;;;
2019/12/14 10:17:18;;;;;;;6;1.6;;;;;;;10.06;56.50879;942.0041;;;;
2019/12/14 10:19:43;;;;;;;7.5;2.2;;;;;;;10.33;55.13867;942.0067;;;;
2019/12/14 10:22:08;;;;;;;6.4;1.8;;;;;;;10.43;54.91504;942.3016;;;;
2019/12/14 10:24:33;;;;;;;6.5;2.2;;;;;;;10.39;54.60742;942.3513;;;;
2019/12/14 10:26:58;;;;;;;5.6;1.7;;;;;;;10.61;54.58789;942.5221;;;;
2019/12/14 10:29:23;;;;;;;5.6;2.1;;;;;;;10.94;53.70215;942.6506;;;;
2019/12/14 10:31:48;;;;;;;6.8;1.8;;;;;;;11.06;53.23535;942.729;;;;
2019/12/14 10:34:13;;;;;;;4.7;1.5;;;;;;;11.11;53.98242;942.702;;;;
2019/12/14 10:36:38;;;;;;;4.5;1.6;;;;;;;10.9;52.99316;942.7386;;;;
2019/12/14 10:39:04;;;;;;;6.2;1.7;;;;;;;10.77;52.3916;942.7186;;;;
2019/12/14 10:41:29;;;;;;;5.1;1.5;;;;;;;10.88;52.59277;942.7606;;;;
2019/12/14 10:43:54;;;;;;;5.7;1.6;;;;;;;11.03;51.75488;942.8583;;;;
2019/12/14 10:46:19;;;;;;;5.5;1.5;;;;;;;11.03;50.00684;942.9364;;;;
2019/12/14 10:48:44;;;;;;;4.6;1.4;;;;;;;10.93;51.25;943.036;;;;
2019/12/14 10:51:09;;;;;;;5.3;1.7;;;;;;;11.08;51.4082;943.1239;;;;
2019/12/14 10:53:34;;;;;;;7.7;1.7;;;;;;;10.98;51.37305;942.7978;;;;
2019/12/14 10:55:59;;;;;;;5;1.6;;;;;;;10.67;51.54688;943.0583;;;;
2019/12/14 10:58:32;;;;;;;4.8;1.4;;;;;;;10.41;51.80957;943.1973;;;;
2019/12/14 11:03:31;;;;;;;5.2;1.5;;;;;;;10.35;52.69238;943.1231;;;;
2019/12/14 11:05:40;;;;;;;6.4;1.6;;;;;;;10.19;52.32129;943.0522;;;;
2019/12/14 11:08:05;;;;;;;5.2;1.5;;;;;;;10.15;52.02344;943.1071;;;;
2019/12/14 11:10:30;;;;;;;5.3;1.5;;;;;;;10.04;52.4209;943.2539;;;;
2019/12/14 11:12:55;;;;;;;4.9;1.4;;;;;;;10.06;53.01953;943.1846;;;;
2019/12/14 11:15:20;;;;;;;5.8;1.4;;;;;;;10.12;52.79297;943.2107;;;;
2019/12/14 11:17:46;;;;;;;4.8;1.5;;;;;;;10.09;52.23828;943.192;;;;
2019/12/14 11:20:11;;;;;;;3.7;1.3;;;;;;;10.03;52.02148;943.192;;;;
2019/12/14 11:22:36;;;;;;;6.7;1.3;;;;;;;10.08;52.35449;943.2863;;;;
2019/12/14 11:25:01;;;;;;;3.6;1.3;;;;;;;9.97;53.20801;943.2503;;;;
2019/12/14 11:27:26;;;;;;;3.6;1.3;;;;;;;9.97;53.33691;943.2252;;;;
2019/12/14 11:29:51;;;;;;;4.6;1.3;;;;;;;9.91;53.85547;943.3822;;;;
2019/12/14 11:32:16;;;;;;;5.7;1.4;;;;;;;9.84;53.39063;943.501;;;;
2019/12/14 11:34:41;;;;;;;5.2;1.5;;;;;;;9.9;53.67871;943.4501;;;;
2019/12/14 11:37:06;;;;;;;4.8;1.4;;;;;;;9.92;53.56445;943.4944;;;;
2019/12/14 11:39:32;;;;;;;8;1.9;;;;;;;9.89;53.90137;943.5178;;;;
2019/12/14 11:41:57;;;;;;;4.7;1.2;;;;;;;9.97;53.75684;943.6234;;;;
2019/12/14 11:44:22;;;;;;;5.7;1.3;;;;;;;10.02;54.05762;943.5497;;;;
2019/12/14 11:46:47;;;;;;;4.3;1.2;;;;;;;10.02;53.97559;943.6245;;;;
2019/12/14 11:49:12;;;;;;;5.2;1.2;;;;;;;9.96;54.21387;943.6959;;;;
2019/12/14 11:51:37;;;;;;;5.3;1.3;;;;;;;9.97;54.29688;943.5989;;;;
2019/12/14 11:54:03;;;;;;;3.6;1.3;;;;;;;10;54.35938;943.7597;;;;
2019/12/14 11:56:28;;;;;;;4;1.3;;;;;;;9.87;54.59863;943.7129;;;;
2019/12/14 11:58:53;;;;;;;3.9;1.3;;;;;;;9.96;55.39453;943.6584;;;;
2019/12/14 12:01:18;;;;;;;4.1;1.1;;;;;;;9.83;57.50781;943.8564;;;;
2019/12/14 12:03:43;;;;;;;4;1.2;;;;;;;9.58;59.97754;943.8467;;;;
2019/12/14 12:06:08;;;;;;;4.2;1.3;;;;;;;9.47;62.13672;944.0529;;;;
2019/12/14 12:08:33;;;;;;;3.8;1.1;;;;;;;9.26;63.03027;944.0313;;;;
2019/12/14 12:10:58;;;;;;;4.4;1;;;;;;;9.24;65.30469;944.1841;;;;
2019/12/14 12:13:23;;;;;;;3.1;0.9;;;;;;;9.01;66.57813;944.2159;;;;
2019/12/14 12:15:49;;;;;;;3.3;1;;;;;;;8.98;67.69531;944.2263;;;;
2019/12/14 12:18:14;;;;;;;3.4;1.1;;;;;;;8.9;67.96191;944.0984;;;;
2019/12/14 12:20:39;;;;;;;3.3;1.2;;;;;;;8.92;67.93066;944.0613;;;;
2019/12/14 12:23:04;;;;;;;4.3;1.2;;;;;;;8.98;66.83105;944.1365;;;;
2019/12/14 12:25:29;;;;;;;4.8;1;;;;;;;9.11;66.46484;944.1018;;;;
2019/12/14 12:27:54;;;;;;;4.1;1.1;;;;;;;9.05;65.3457;944.1322;;;;
2019/12/14 12:30:19;;;;;;;3.4;1.1;;;;;;;9.16;64.66113;944.1259;;;;
2019/12/14 12:32:44;;;;;;;3.7;1.1;;;;;;;9.61;63.73438;944.0499;;;;
2019/12/14 12:35:09;;;;;;;4.2;1.3;;;;;;;9.8;61.99609;944.1603;;;;
2019/12/14 12:37:35;;;;;;;3.2;1.1;;;;;;;10.2;61.23438;944.2659;;;;
2019/12/14 12:40:00;;;;;;;4.1;1.1;;;;;;;10.37;60.05273;944.3809;;;;
2019/12/14 12:42:25;;;;;;;4.7;1.5;;;;;;;10.31;60.08984;944.4094;;;;
2019/12/14 12:44:50;;;;;;;4.7;1.4;;;;;;;10.11;60.15625;944.6454;;;;
2019/12/14 12:47:15;;;;;;;5.2;1.5;;;;;;;9.91;60.76074;944.6086;;;;
2019/12/14 12:49:40;;;;;;;6;1.4;;;;;;;9.89;60.73535;944.6304;;;;
2019/12/14 12:52:05;;;;;;;5.7;1.4;;;;;;;9.82;61.19238;944.6672;;;;
2019/12/14 12:54:30;;;;;;;4.6;1.3;;;;;;;9.56;62.04395;944.8245;;;;
2019/12/14 12:56:56;;;;;;;5.4;1.5;;;;;;;9.57;62.0918;944.9644;;;;
2019/12/14 12:59:21;;;;;;;6;1.6;;;;;;;9.59;62.72754;944.972;;;;
2019/12/14 13:01:46;;;;;;;5.3;1.3;;;;;;;9.55;61.73828;945.2386;;;;
2019/12/14 13:04:11;;;;;;;4;1.2;;;;;;;9.42;61.76758;945.2608;;;;
2019/12/14 13:06:36;;;;;;;3.7;1.1;;;;;;;9.31;62.16016;945.3967;;;;
2019/12/14 13:09:01;;;;;;;3.9;1.1;;;;;;;9.21;62.7998;945.3453;;;;
2019/12/14 13:11:26;;;;;;;3.6;0.9;;;;;;;9.05;63.18555;945.5834;;;;
2019/12/14 13:13:52;;;;;;;3.2;0.8;;;;;;;8.99;64.0752;945.502;;;;
2019/12/14 13:16:17;;;;;;;3.5;0.9;;;;;;;8.93;64.23047;945.5967;;;;
2019/12/14 13:18:42;;;;;;;2.8;1;;;;;;;8.83;64.89258;945.7982;;;;
2019/12/14 13:21:07;;;;;;;2.2;0.9;;;;;;;8.83;65.10254;945.8722;;;;
2019/12/14 13:23:32;;;;;;;3.6;1;;;;;;;8.77;65.50195;946.0854;;;;
2019/12/14 13:25:57;;;;;;;2.9;1.1;;;;;;;8.79;65.36523;946.2308;;;;
2019/12/14 13:28:22;;;;;;;4.3;1.1;;;;;;;8.85;64.91992;946.3178;;;;
2019/12/14 13:30:47;;;;;;;4.1;1.1;;;;;;;8.92;64.46191;946.5421;;;;
2019/12/14 13:33:12;;;;;;;3.5;1;;;;;;;9.03;63.74316;946.5622;;;;
2019/12/14 13:35:37;;;;;;;2.5;1.1;;;;;;;9.13;62.4375;946.6395;;;;
2019/12/14 13:38:07;;;;;;;3.5;1.2;;;;;;;9.27;62.37598;946.7039;;;;
2019/12/14 13:40:27;;;;;;;3.7;1.2;;;;;;;9.39;61.60059;946.8644;;;;
2019/12/14 13:42:53;;;;;;;2.5;1;;;;;;;9.38;59.53906;946.8358;;;;
2019/12/14 13:45:18;;;;;;;2.9;1;;;;;;;9.54;59.12988;946.9386;;;;
2019/12/14 13:47:43;;;;;;;5.6;1.3;;;;;;;9.54;58.03027;946.9526;;;;
2019/12/14 13:50:08;;;;;;;3.7;1.1;;;;;;;9.5;57.78027;947.2291;;;;
2019/12/14 13:52:33;;;;;;;3.1;1.2;;;;;;;9.63;57.60938;947.1932;;;;
2019/12/14 13:54:58;;;;;;;3.2;1.3;;;;;;;9.57;57.23926;947.1756;;;;
2019/12/14 13:57:23;;;;;;;5.4;1.3;;;;;;;9.51;56.96191;947.2849;;;;
2019/12/14 13:59:48;;;;;;;5.5;1.6;;;;;;;9.21;56.92285;947.5131;;;;
2019/12/14 14:02:14;;;;;;;4.8;1.5;;;;;;;9.31;56.75098;947.4363;;;;
2019/12/14 14:04:39;;;;;;;5.7;1.3;;;;;;;9.39;56.68945;947.4362;;;;
2019/12/14 14:07:04;;;;;;;4.5;1.3;;;;;;;9.42;56.35449;947.454;;;;
2019/12/14 14:09:31;;;;;;;7.6;1.7;;;;;;;9.31;56.32715;947.5544;;;;
2019/12/14 14:11:54;;;;;;;6;1.6;;;;;;;9.29;56.29004;947.5482;;;;
2019/12/14 14:14:19;;;;;;;5.9;1.8;;;;;;;9.3;55.74219;947.5634;;;;
2019/12/14 14:16:44;;;;;;;6.7;1.7;;;;;;;9.1;56.46484;947.5684;;;;
2019/12/14 14:19:09;;;;;;;6.7;1.8;;;;;;;8.92;55.97363;947.7665;;;;
2019/12/14 14:21:34;;;;;;;8.7;1.9;;;;;;;8.85;56.3623;947.5941;;;;
2019/12/14 14:23:59;;;;;;;7.7;2;;;;;;;8.79;56.09766;947.7831;;;;
2019/12/14 14:26:24;;;;;;;9.2;2.3;;;;;;;8.78;55.89844;947.8981;;;;